createdAt,value
2023-03-15T00:01:18.669Z,0.90
2023-03-15T00:07:25.657Z,1.63
2023-03-15T00:13:27.323Z,1.13
2023-03-15T00:19:28.698Z,1.70
2023-03-15T00:25:30.241Z,1.48
2023-03-15T00:31:31.691Z,1.27
2023-03-15T00:37:33.380Z,1.10
2023-03-15T00:43:36.827Z,1.23
2023-03-15T00:49:38.906Z,1.47
2023-03-15T00:55:42.451Z,1.48
2023-03-15T01:01:44.848Z,1.45
2023-03-15T01:07:46.311Z,1.77
2023-03-15T01:13:47.772Z,1.45
2023-03-15T01:19:51.588Z,1.50
2023-03-15T01:25:53.687Z,1.55
2023-03-15T01:31:56.637Z,1.27
2023-03-15T01:37:59.190Z,1.30
2023-03-15T01:44:01.195Z,1.10
2023-03-15T01:50:06.006Z,0.90
2023-03-15T01:56:07.908Z,1.20
2023-03-15T02:02:14.573Z,1.15
2023-03-15T02:08:17.398Z,0.90
2023-03-15T02:14:22.413Z,1.33
2023-03-15T02:20:42.799Z,1.07
2023-03-15T02:26:48.359Z,0.90
2023-03-15T02:32:49.868Z,0.82
2023-03-15T02:38:52.643Z,1.30
2023-03-15T02:44:54.679Z,1.40
2023-03-15T02:50:56.196Z,1.50
2023-03-15T02:56:57.751Z,1.15
2023-03-15T03:02:59.275Z,1.33
2023-03-15T03:09:04.728Z,2.37
2023-03-15T03:15:10.276Z,2.60
2023-03-15T03:21:11.999Z,2.30
2023-03-15T03:27:14.910Z,1.70
2023-03-15T03:33:18.638Z,2.22
2023-03-15T03:39:22.395Z,1.57
2023-03-15T03:45:23.883Z,1.10
2023-03-15T03:51:28.733Z,0.80
2023-03-15T03:57:31.399Z,1.15
2023-03-15T04:03:34.338Z,0.90
2023-03-15T04:09:46.169Z,1.40
2023-03-15T04:15:48.490Z,0.93
2023-03-15T04:21:52.433Z,1.10
2023-03-15T04:28:11.293Z,0.98
2023-03-15T04:34:38.733Z,0.85
2023-03-15T04:40:52.359Z,1.10
2023-03-15T04:47:00.953Z,1.60
2023-03-15T04:53:14.849Z,1.20
2023-03-15T04:59:31.131Z,0.93
2023-03-15T05:05:53.417Z,1.25
2023-03-15T05:12:34.983Z,1.20
2023-03-15T05:18:51.498Z,1.10
2023-03-15T05:25:13.889Z,0.90
2023-03-15T05:31:36.999Z,0.80
2023-03-15T05:37:57.478Z,0.82
2023-03-15T05:44:17.541Z,0.73
2023-03-15T05:50:37.739Z,1.00
2023-03-15T05:57:05.281Z,0.80
2023-03-15T06:03:27.514Z,1.02
2023-03-15T06:09:39.180Z,0.80
2023-03-15T06:15:41.022Z,1.30
2023-03-15T06:21:44.331Z,1.40
2023-03-15T06:27:52.956Z,0.87
2023-03-15T06:33:55.372Z,1.40
2023-03-15T06:39:57.268Z,1.20
2023-03-15T06:46:01.333Z,1.43
2023-03-15T06:52:03.887Z,1.00
2023-03-15T06:58:05.456Z,1.57
2023-03-15T07:04:08.399Z,1.48
2023-03-15T07:10:10.464Z,1.17
2023-03-15T07:16:12.079Z,1.20
2023-03-15T07:22:13.592Z,1.40
2023-03-15T07:28:15.040Z,1.67
2023-03-15T07:34:16.547Z,1.67
2023-03-15T07:40:18.135Z,1.40
2023-03-15T07:46:21.759Z,1.73
2023-03-15T07:52:23.742Z,2.08
2023-03-15T07:58:25.226Z,2.27
2023-03-15T08:04:26.706Z,2.55
2023-03-15T08:10:28.155Z,2.33
2023-03-15T08:16:29.585Z,2.80
2023-03-15T08:22:31.289Z,2.03
2023-03-15T08:28:32.693Z,2.33
2023-03-15T08:34:34.250Z,2.42
2023-03-15T08:40:35.846Z,1.83
2023-03-15T08:46:38.809Z,2.40
2023-03-15T08:52:40.690Z,2.17
2023-03-15T08:58:42.327Z,1.90
2023-03-15T09:04:43.808Z,2.10
2023-03-15T09:10:45.407Z,2.70
2023-03-15T09:16:46.916Z,2.77
2023-03-15T09:22:52.430Z,2.00
2023-03-15T09:28:55.912Z,2.47
2023-03-15T09:34:57.488Z,2.53
2023-03-15T09:40:59.477Z,2.70
2023-03-15T09:47:01.688Z,2.10
2023-03-15T09:53:06.326Z,2.25
2023-03-15T09:59:09.875Z,2.40
2023-03-15T10:05:17.099Z,2.00
2023-03-15T10:11:29.605Z,2.05
2023-03-15T10:17:36.223Z,2.27
2023-03-15T10:23:55.568Z,2.38
2023-03-15T10:29:58.295Z,1.80
2023-03-15T10:36:10.576Z,2.05
2023-03-15T10:42:24.969Z,2.22
2023-03-15T10:48:27.350Z,2.70
2023-03-15T10:54:28.842Z,2.50
2023-03-15T11:00:31.705Z,2.33
2023-03-15T11:06:39.255Z,2.20
2023-03-15T11:12:40.658Z,2.10
2023-03-15T11:18:59.553Z,2.57
2023-03-15T11:25:01.854Z,1.88
2023-03-15T11:31:04.714Z,1.23
2023-03-15T11:37:13.231Z,1.45
2023-03-15T11:43:34.418Z,1.20
2023-03-15T11:49:54.952Z,0.90
2023-03-15T11:55:58.493Z,1.00
2023-03-15T12:02:05.880Z,1.37
2023-03-15T12:08:21.500Z,1.40
2023-03-15T12:14:33.404Z,1.00
2023-03-15T12:20:39.198Z,1.00
2023-03-15T12:26:43.738Z,0.80
2023-03-15T12:32:48.452Z,0.90
2023-03-15T12:38:54.480Z,0.95
2023-03-15T12:45:15.870Z,0.70
2023-03-15T12:51:37.348Z,0.73
2023-03-15T12:57:44.619Z,0.90
2023-03-15T13:03:46.269Z,0.90
2023-03-15T13:10:12.936Z,1.73
2023-03-15T13:16:22.129Z,2.00
2023-03-15T13:22:27.350Z,1.30
2023-03-15T13:28:37.421Z,1.40
2023-03-15T13:34:39.783Z,1.73
2023-03-15T13:40:47.301Z,3.60
2023-03-15T13:46:49.321Z,1.73
2023-03-15T13:52:51.037Z,2.67
2023-03-15T13:58:52.593Z,3.00
2023-03-15T14:04:58.478Z,1.70
2023-03-15T14:11:03.155Z,1.52
2023-03-15T14:17:08.819Z,1.27
2023-03-15T14:23:17.323Z,1.27
2023-03-15T14:29:22.077Z,1.30
2023-03-15T14:35:39.959Z,1.40
2023-03-15T14:41:41.508Z,1.88
2023-03-15T14:48:01.168Z,2.15
2023-03-15T14:54:02.852Z,1.70
2023-03-15T15:00:05.456Z,2.40
2023-03-15T15:06:08.498Z,1.80
2023-03-15T15:12:11.244Z,1.70
2023-03-15T15:18:12.856Z,1.83
2023-03-15T15:24:19.573Z,1.83
2023-03-15T15:30:22.757Z,1.90
2023-03-15T15:36:26.404Z,1.87
2023-03-15T15:42:29.422Z,1.80
2023-03-15T15:48:31.035Z,1.65
2023-03-15T15:54:35.528Z,1.73
2023-03-15T16:00:37.125Z,1.35
2023-03-15T16:06:38.752Z,1.50
2023-03-15T16:12:40.389Z,1.67
2023-03-15T16:18:43.041Z,2.00
2023-03-15T16:24:45.547Z,1.10
2023-03-15T16:30:47.348Z,1.10
2023-03-15T16:36:54.677Z,1.10
2023-03-15T16:42:56.905Z,1.10
2023-03-15T16:48:59.158Z,1.27
2023-03-15T16:55:01.156Z,1.37
2023-03-15T17:01:02.625Z,1.33
2023-03-15T17:07:04.989Z,1.20
2023-03-15T17:13:07.159Z,1.33
2023-03-15T17:19:13.449Z,2.08
2023-03-15T17:25:16.049Z,1.70
2023-03-15T17:31:25.019Z,1.60
2023-03-15T17:37:30.841Z,1.53
2023-03-15T17:43:32.850Z,1.73
2023-03-15T17:49:34.406Z,1.60
2023-03-15T17:55:36.066Z,1.37
2023-03-15T18:01:39.736Z,1.70
2023-03-15T18:07:48.846Z,1.80
2023-03-15T18:13:57.707Z,1.35
2023-03-15T18:19:59.111Z,1.40
2023-03-15T18:26:01.940Z,1.67
2023-03-15T18:32:04.143Z,2.63
2023-03-15T18:38:05.915Z,2.00
2023-03-15T18:44:09.177Z,2.20
2023-03-15T18:50:11.562Z,1.98
2023-03-15T18:56:19.410Z,1.70
2023-03-15T19:02:21.005Z,1.70
2023-03-15T19:08:22.658Z,2.43
2023-03-15T19:14:24.309Z,2.53
2023-03-15T19:20:26.437Z,3.03
2023-03-15T19:26:30.372Z,3.00
2023-03-15T19:32:32.376Z,2.90
2023-03-15T19:38:34.307Z,3.33
2023-03-15T19:44:36.322Z,3.75
2023-03-15T19:50:38.307Z,4.38
2023-03-15T19:56:40.109Z,3.67
2023-03-15T20:02:42.131Z,3.58
2023-03-15T20:08:44.425Z,3.00
2023-03-15T20:14:47.077Z,3.25
2023-03-15T20:20:49.958Z,2.97
2023-03-15T20:26:52.760Z,3.13
2023-03-15T20:32:54.644Z,2.40
2023-03-15T20:38:56.305Z,2.37
2023-03-15T20:44:57.713Z,2.53
2023-03-15T20:50:59.884Z,2.33
2023-03-15T20:57:02.690Z,2.67
2023-03-15T21:03:07.530Z,2.47
2023-03-15T21:09:38.517Z,2.27
2023-03-15T21:15:45.932Z,2.30
2023-03-15T21:21:47.969Z,2.53
2023-03-15T21:27:51.467Z,3.07
2023-03-15T21:33:53.709Z,2.83
2023-03-15T21:39:55.289Z,3.10
2023-03-15T21:46:07.382Z,2.95
2023-03-15T21:52:09.041Z,2.73
2023-03-15T21:58:11.916Z,3.03
2023-03-15T22:04:13.705Z,3.22
2023-03-15T22:10:19.725Z,3.13
2023-03-15T22:16:21.297Z,3.60
2023-03-15T22:22:22.819Z,3.73
2023-03-15T22:28:25.224Z,3.30
2023-03-15T22:34:27.577Z,3.15
2023-03-15T22:40:29.212Z,3.20
2023-03-15T22:46:35.324Z,2.83
2023-03-15T22:52:36.830Z,2.83
2023-03-15T22:58:38.512Z,3.00
2023-03-15T23:04:40.029Z,2.90
2023-03-15T23:10:42.062Z,3.07
2023-03-15T23:16:44.166Z,2.78
2023-03-15T23:22:46.221Z,2.43
2023-03-15T23:28:47.729Z,2.37
2023-03-15T23:34:51.120Z,2.63
2023-03-15T23:40:53.659Z,2.57
2023-03-15T23:46:55.135Z,2.15
2023-03-15T23:52:56.641Z,1.90
2023-03-15T23:58:58.697Z,2.13
